createdAt,value
2019-01-26T00:01:32.592Z,33.6
2019-01-26T00:11:26.569Z,33.6
2019-01-26T00:21:26.900Z,33.2
2019-01-26T00:31:26.590Z,30.6
2019-01-26T00:41:27.532Z,34.4
2019-01-26T00:51:26.998Z,30.8
2019-01-26T01:01:28.109Z,32.8
2019-01-26T01:11:26.468Z,29.3
2019-01-26T01:21:26.163Z,31.2
2019-01-26T01:31:25.905Z,29.9
2019-01-26T01:41:26.464Z,31.4
2019-01-26T01:51:27.871Z,35.7
2019-01-26T02:01:26.511Z,37.6
2019-01-26T02:11:26.353Z,25.1
2019-01-26T02:21:25.714Z,39.1
2019-01-26T02:31:28.315Z,37.8
2019-01-26T02:41:25.905Z,31.3
2019-01-26T02:51:26.451Z,35.7
2019-01-26T03:01:27.918Z,36.7
2019-01-26T03:11:26.581Z,36.2
2019-01-26T03:21:27.257Z,36.2
2019-01-26T03:31:25.889Z,31.8
2019-01-26T03:41:27.748Z,31.2
2019-01-26T03:51:26.665Z,31.3
2019-01-26T04:01:26.818Z,28.8
2019-01-26T04:11:26.618Z,28.7
2019-01-26T04:21:26.594Z,28.7
2019-01-26T04:31:26.320Z,25.3
2019-01-26T04:41:26.112Z,26.7
2019-01-26T04:51:25.818Z,27.0
2019-01-26T05:01:30.439Z,26.4
2019-01-26T05:11:26.167Z,26.1
2019-01-26T05:21:25.937Z,25.8
2019-01-26T05:31:27.282Z,26.6
2019-01-26T05:41:26.704Z,27.0
2019-01-26T05:51:27.951Z,24.7
2019-01-26T06:01:26.856Z,26.7
2019-01-26T06:11:26.671Z,26.6
2019-01-26T06:21:27.012Z,26.3
2019-01-26T06:31:26.657Z,25.7
2019-01-26T06:41:27.239Z,29.9
2019-01-26T06:51:27.467Z,30.1
2019-01-26T07:01:26.086Z,24.2
2019-01-26T07:11:27.531Z,25.8
2019-01-26T07:21:26.811Z,19.1
2019-01-26T07:31:28.315Z,17.4
2019-01-26T07:41:26.810Z,18.5
2019-01-26T07:51:26.366Z,16.2
2019-01-26T08:01:26.753Z,18.4
2019-01-26T08:11:27.525Z,19.3
2019-01-26T08:21:29.348Z,20.5
2019-01-26T08:31:26.379Z,22.7
2019-01-26T08:41:26.629Z,19.6
2019-01-26T08:51:33.187Z,19.0
2019-01-26T09:01:29.007Z,21.4
2019-01-26T09:11:28.957Z,22.2
2019-01-26T09:21:29.289Z,22.7
2019-01-26T09:31:27.057Z,22.7
2019-01-26T09:41:26.610Z,22.7
2019-01-26T09:51:28.908Z,23.2
2019-01-26T10:01:27.834Z,21.6
2019-01-26T10:11:27.535Z,21.9
2019-01-26T10:21:26.211Z,19.5
2019-01-26T10:31:26.721Z,21.1
2019-01-26T10:41:26.443Z,19.5
2019-01-26T10:51:26.880Z,20.7
2019-01-26T11:01:26.975Z,19.3
2019-01-26T11:11:26.673Z,20.4
2019-01-26T11:21:26.903Z,20.0
2019-01-26T11:31:37.398Z,21.0
2019-01-26T11:41:34.303Z,21.6
2019-01-26T11:51:27.363Z,19.5
2019-01-26T12:01:27.714Z,22.5
2019-01-26T12:11:27.803Z,22.9
2019-01-26T12:21:27.696Z,27.2
2019-01-26T12:31:26.647Z,23.3
2019-01-26T12:41:26.420Z,23.0
2019-01-26T12:51:26.845Z,25.3
2019-01-26T13:01:26.738Z,26.1
2019-01-26T13:11:26.069Z,25.2
2019-01-26T13:21:27.310Z,29.7
2019-01-26T13:31:26.999Z,25.7
2019-01-26T13:41:27.167Z,26.7
2019-01-26T13:51:27.255Z,26.0
2019-01-26T14:01:26.357Z,26.9
2019-01-26T14:11:28.311Z,26.8
2019-01-26T14:21:26.834Z,27.2
2019-01-26T14:31:28.096Z,26.7
2019-01-26T14:41:26.373Z,27.5
2019-01-26T14:51:33.990Z,27.1
2019-01-26T15:01:26.498Z,27.4
2019-01-26T15:11:26.699Z,25.5
2019-01-26T15:21:25.772Z,25.2
2019-01-26T15:31:27.067Z,25.0
2019-01-26T15:41:28.313Z,25.8
2019-01-26T15:51:27.128Z,26.8
2019-01-26T16:01:26.637Z,28.6
2019-01-26T16:11:26.921Z,28.0
2019-01-26T16:21:26.563Z,24.6
2019-01-26T16:31:27.838Z,25.1
2019-01-26T16:41:26.548Z,28.5
2019-01-26T16:51:26.458Z,23.9
2019-01-26T17:01:26.454Z,26.3
2019-01-26T17:11:27.593Z,28.4
2019-01-26T17:21:32.630Z,28.0
2019-01-26T17:31:26.327Z,29.2
2019-01-26T17:41:26.327Z,36.5
2019-01-26T17:51:28.013Z,26.5
2019-01-26T18:01:26.667Z,24.3
2019-01-26T18:11:26.916Z,26.0
2019-01-26T18:21:26.446Z,23.7
2019-01-26T18:31:26.187Z,25.0
2019-01-26T18:41:26.935Z,20.1
2019-01-26T18:51:25.985Z,25.7
2019-01-26T19:01:26.501Z,27.2
2019-01-26T19:11:28.874Z,30.5
2019-01-26T19:21:27.522Z,29.8
2019-01-26T19:31:26.440Z,34.2
2019-01-26T19:41:26.430Z,29.9
2019-01-26T19:51:26.627Z,30.0
2019-01-26T20:01:28.184Z,29.3
2019-01-26T20:11:32.195Z,28.8
2019-01-26T20:21:26.839Z,30.5
2019-01-26T20:31:33.205Z,30.9
2019-01-26T20:41:26.185Z,29.0
2019-01-26T20:51:26.174Z,28.2
2019-01-26T21:01:26.121Z,28.3
2019-01-26T21:11:25.769Z,27.7
2019-01-26T21:21:31.835Z,33.1
2019-01-26T21:31:26.568Z,27.1
2019-01-26T21:41:26.401Z,29.5
2019-01-26T21:51:38.754Z,30.6
2019-01-26T22:01:27.606Z,27.7
2019-01-26T22:11:26.345Z,30.3
2019-01-26T22:21:26.398Z,29.0
2019-01-26T22:31:26.553Z,33.1
2019-01-26T22:41:27.601Z,33.1
2019-01-26T22:51:26.253Z,31.7
2019-01-26T23:01:26.555Z,31.6
2019-01-26T23:11:27.504Z,30.3
2019-01-26T23:21:36.255Z,28.9
2019-01-26T23:31:27.250Z,29.0
2019-01-26T23:41:32.703Z,29.0
2019-01-26T23:51:26.093Z,29.3
